Flight Track Log - Related Links

Times and Time Zones

All times are in EDT time to prevent confusion due to time zone crossing. See the SWA1521 flight status page for this flight to view local times or setup timezone preferences in your user account.

Time Position Orientation Groundspeed Altitude Reporting Facility
EDT Latitude Longitude Course Direction KTS MPH feet Rate Location/Type
Thu 01:24:36 AM 38.6667 -121.6000 109° East 157 181 1,500  Level Northern Cal TRACON
Thu 01:27:02 AM 38.5783 -121.4186 122° Southeast 279 321 9,700 3,333 Climbing Oakland Center
Thu 01:28:03 AM 38.5353 -121.3258 121° Southeast 296 341 13,000 3,295 Climbing Oakland Center
Thu 01:29:04 AM 38.4842 -121.2189 121° Southeast 345 397 16,400 3,521 Climbing Oakland Center
Thu 01:30:00 AM 38.3097 -120.9915 109° East  Level FlightAware Approximate
Thu 01:30:04 AM 38.4250 -121.0914 121° Southeast 367 422 20,100  Level Oakland Center
Thu 01:31:05 AM 38.3681 -120.9700 121° Southeast 395 455 23,000 2,754 Climbing Oakland Center
Thu 01:32:06 AM 38.3092 -120.8453 121° Southeast 410 472 25,700 2,361 Climbing Oakland Center
Thu 01:33:07 AM 38.2478 -120.7158 121° Southeast 426 490 27,800 2,033 Climbing Oakland Center
Thu 01:34:07 AM 38.1569 -120.6064 137° Southeast 448 516 29,800 1,983 Climbing Oakland Center
Thu 01:35:08 AM 38.0539 -120.5072 143° Southeast 462 532 31,800 2,164 Climbing Oakland Center
Thu 01:36:09 AM 37.9558 -120.4017 140° Southeast 462 532 34,200 2,016 Climbing Oakland Center
Thu 01:37:10 AM 37.8636 -120.2947 138° Southeast 450 518 35,900 1,686 Climbing Oakland Center
Thu 01:38:10 AM 37.7589 -120.2011 145° Southeast 455 524 37,600 1,537 Climbing Oakland Center
Thu 01:39:11 AM 37.6597 -120.1044 142° Southeast 450 518 39,000 689 Climbing Oakland Center
Thu 01:40:12 AM 37.5531 -120.0147 146° Southeast 454 522 39,000  Level Oakland Center
Thu 01:41:12 AM 37.4525 -119.9206 143° Southeast 451 519 39,000  Level Oakland Center
Thu 01:42:13 AM 37.3517 -119.8261 143° Southeast 450 518 39,000  Level Oakland Center
Thu 01:43:14 AM 37.2503 -119.7319 144° Southeast 451 519 39,000  Level Oakland Center
Thu 01:44:14 AM 37.1489 -119.6386 144° Southeast 452 520 39,000  Level Oakland Center
Thu 01:45:15 AM 37.0325 -119.5981 164° South 450 518 39,000  Level Oakland Center
Thu 01:46:16 AM 36.9083 -119.5989 180° South 445 512 39,000  Level Oakland Center
Thu 01:47:16 AM 36.7586 -119.6008 181° South 448 516 39,000  Level Oakland Center
Thu 01:48:17 AM 36.6350 -119.6028 181° South 444 511 39,000  Level Oakland Center
Thu 01:49:18 AM 36.5117 -119.6044 181° South 443 510 39,000  Level Oakland Center
Thu 01:50:18 AM 36.3889 -119.6056 180° South 441 507 39,000  Level Oakland Center
Thu 01:51:19 AM 36.2658 -119.6072 181° South 441 507 39,000  Level Oakland Center
Thu 01:52:19 AM 36.1436 -119.6094 181° South 437 503 39,000  Level Oakland Center
Thu 01:53:20 AM 36.0192 -119.6114 181° South 444 511 39,000  Level Oakland Center
Thu 01:54:21 AM 35.8956 -119.6169 182° South 443 510 39,000  Level Oakland Center
Thu 01:55:21 AM 35.7706 -119.6233 182° South 446 513 39,000  Level Oakland Center
Thu 01:57:22 AM 35.5231 -119.6317 182° South 441 507 39,000  Level Oakland Center
Thu 01:58:23 AM 35.3994 -119.6358 182° South 440 506 39,000 -50 Level Oakland Center
Thu 01:59:23 AM 35.2769 -119.6394 181° South 439 505 38,900 -545 Descending Oakland Center
Thu 02:00:24 AM 35.1686 -119.5697 152° Southeast 437 503 37,900 -1,736 Descending Oakland Center
Thu 02:01:24 AM 35.0694 -119.4836 145° Southeast 437 503 35,400 -2,826 Descending Oakland Center
Thu 02:02:25 AM 34.9669 -119.3947 145° Southeast 445 512 32,200 -2,951 Descending Oakland Center
Thu 02:03:26 AM 34.8614 -119.3056 145° Southeast 457 526 29,400 -2,628 Descending Oakland Center
Thu 02:04:26 AM 34.7597 -119.2192 145° Southeast 450 518 26,900 -2,519 Descending Oakland Center
Thu 02:05:37 AM 34.6364 -119.1164 146° Southeast 428 493 23,900 -2,336 Descending Los Angeles Center
Thu 02:06:37 AM 34.5556 -119.0469 145° Southeast 412 474 21,800 -2,182 Descending Los Angeles Center
Thu 02:07:38 AM 34.4661 -118.9717 145° Southeast 387 445 19,500 -2,410 Descending Los Angeles Center
Thu 02:08:39 AM 34.3650 -118.8894 146° Southeast 363 418 16,900 -2,459 Descending Los Angeles Center
Thu 02:09:40 AM 34.2719 -118.8500 161° South 357 411 14,500 -2,066 Descending Los Angeles Center
Thu 02:10:41 AM 34.1819 -118.8172 163° South 338 389 12,700 -1,835 Descending Los Angeles Center
Thu 02:11:41 AM 34.0967 -118.7858 163° South 323 372 10,800 -1,339 Descending Los Angeles Center
Thu 02:12:42 AM 34.0350 -118.7181 138° Southeast 296 341 10,000 -868 Descending Los Angeles Center
Thu 02:14:20 AM 34.0167 -118.5667 98° East 272 313 8,500 -984 Descending Southern California TRACON
Thu 02:14:44 AM 34.0178 -118.5394 87° East 269 310 8,000 -1,071 Descending Los Angeles Center
Thu 02:15:44 AM 34.0103 -118.4603 96° East 259 298 7,000 -1,190 Descending Los Angeles Center
Thu 02:16:45 AM 34.0236 -118.3742 79° East 263 303 5,600 -1,426 Descending Los Angeles Center
Thu 02:17:46 AM 34.0328 -118.2872 83° East 261 300 4,100 -934 Descending Los Angeles Center
Thu 02:18:47 AM 34.0336 -118.2153 89° East 240 276 3,700 -744 Descending Los Angeles Center
Thu 02:19:47 AM 33.9856 -118.2261 191° South 210 242 2,600 -744 Descending Los Angeles Center
Thu 02:20:48 AM 33.9653 -118.2772 244° Southwest 189 217 2,200 -639 Descending Los Angeles Center
Thu 02:21:49 AM 33.9603 -118.3300 263° West 173 199 1,300 -793 Descending Los Angeles Center
Thu 02:22:49 AM 33.9564 -118.3744 264° West 151 174 600 -545 Descending Los Angeles Center
Thu 02:23:50 AM 33.9497 -118.4242 261° West 143 165 200 -393 Descending Los Angeles Center
Thu 02:25:00 AM 33.9425 -118.4081 270° West  Level Estimated

Login

Don't have an account? Register now (free) for customized features, flight alerts, and more!